RYR3TJ EGCC-EBCI
Flight info
| Callsign | RYR3TJ |
|---|---|
| Flight time | 0h 56m |
| Altitude | 23000 |
| Route | LISTO L612 HON/N0471F290 L15 BIG Q70 VABIK/N0426F230 Q70 KOK |
| Aircraft | B738/M-SDE2E3FGHIRWXY/LB1 |
Departure
| Time | 2026-04-30 19:13 |
|---|---|
| Airport | Manchester Airport (EGCC) |
Arrival
| Time | 2026-04-30 20:10 |
|---|---|
| Airport | Brussels South Charleroi Airport (EBCI) |
| Time | Latitude | Longitude | Altitude | Speed | Heading |
|---|---|---|---|---|---|
| 2026-04-30 18:45 | 53.36036 | -2.26885 | 247 ft | 0 kts | 313° |
| 2026-04-30 19:01 | 53.36020 | -2.26856 | 247 ft | 4 kts | 313° |
| 2026-04-30 19:01 | 53.36007 | -2.26830 | 247 ft | 4 kts | 286° |
| 2026-04-30 19:02 | 53.36023 | -2.26756 | 247 ft | 4 kts | 231° |
| 2026-04-30 19:02 | 53.36050 | -2.26700 | 247 ft | 0 kts | 231° |
| 2026-04-30 19:05 | 53.36049 | -2.26701 | 247 ft | 1 kts | 231° |
| 2026-04-30 19:05 | 53.35983 | -2.26832 | 247 ft | 13 kts | 211° |
| 2026-04-30 19:06 | 53.35841 | -2.26969 | 253 ft | 13 kts | 238° |
| 2026-04-30 19:06 | 53.35795 | -2.27093 | 251 ft | 12 kts | 232° |
| 2026-04-30 19:06 | 53.35688 | -2.27311 | 252 ft | 12 kts | 231° |
| 2026-04-30 19:07 | 53.35576 | -2.27545 | 249 ft | 17 kts | 231° |
| 2026-04-30 19:07 | 53.35488 | -2.27725 | 247 ft | 21 kts | 231° |
| 2026-04-30 19:08 | 53.35359 | -2.28077 | 240 ft | 19 kts | 223° |
| 2026-04-30 19:08 | 53.35171 | -2.28423 | 230 ft | 20 kts | 230° |
| 2026-04-30 19:08 | 53.35085 | -2.28605 | 232 ft | 20 kts | 231° |
| 2026-04-30 19:09 | 53.34904 | -2.28934 | 224 ft | 20 kts | 227° |
| 2026-04-30 19:09 | 53.34802 | -2.29122 | 215 ft | 23 kts | 230° |
| 2026-04-30 19:09 | 53.34692 | -2.29319 | 209 ft | 13 kts | 207° |
| 2026-04-30 19:10 | 53.34678 | -2.29329 | 208 ft | 0 kts | 201° |
| 2026-04-30 19:11 | 53.34677 | -2.29330 | 208 ft | 1 kts | 200° |
| 2026-04-30 19:11 | 53.34636 | -2.29343 | 210 ft | 7 kts | 184° |
| 2026-04-30 19:11 | 53.34573 | -2.29319 | 208 ft | 11 kts | 155° |
| 2026-04-30 19:12 | 53.34550 | -2.29213 | 214 ft | 12 kts | 64° |
| 2026-04-30 19:12 | 53.34625 | -2.29045 | 211 ft | 37 kts | 51° |
| 2026-04-30 19:12 | 53.34927 | -2.28421 | 236 ft | 100 kts | 51° |
| 2026-04-30 19:13 | 53.36193 | -2.25830 | 758 ft | 162 kts | 54° |
| 2026-04-30 19:13 | 53.37617 | -2.22682 | 2162 ft | 166 kts | 73° |
| 2026-04-30 19:13 | 53.37810 | -2.20869 | 2924 ft | 155 kts | 104° |
| 2026-04-30 19:14 | 53.37367 | -2.19230 | 3371 ft | 162 kts | 137° |
| 2026-04-30 19:14 | 53.36391 | -2.18188 | 3845 ft | 174 kts | 153° |
| 2026-04-30 19:14 | 53.35298 | -2.17221 | 4457 ft | 177 kts | 156° |
| 2026-04-30 19:14 | 53.34057 | -2.16790 | 4892 ft | 191 kts | 183° |
| 2026-04-30 19:15 | 53.32690 | -2.17023 | 5142 ft | 208 kts | 186° |
| 2026-04-30 19:15 | 53.29700 | -2.17627 | 5867 ft | 227 kts | 184° |
| 2026-04-30 19:15 | 53.28106 | -2.17850 | 5865 ft | 227 kts | 183° |
| 2026-04-30 19:16 | 53.26522 | -2.18043 | 6160 ft | 230 kts | 183° |
| 2026-04-30 19:16 | 53.24897 | -2.18266 | 6568 ft | 236 kts | 183° |
| 2026-04-30 19:16 | 53.21412 | -2.18792 | 7539 ft | 259 kts | 184° |
| 2026-04-30 19:17 | 53.19590 | -2.19076 | 8221 ft | 264 kts | 184° |
| 2026-04-30 19:17 | 53.15913 | -2.19654 | 9731 ft | 268 kts | 184° |
| 2026-04-30 19:17 | 53.14060 | -2.19630 | 10397 ft | 271 kts | 167° |
| 2026-04-30 19:18 | 53.10945 | -2.17702 | 10754 ft | 305 kts | 158° |
| 2026-04-30 19:18 | 53.08213 | -2.15778 | 10962 ft | 332 kts | 157° |
| 2026-04-30 19:18 | 53.06022 | -2.14230 | 11106 ft | 351 kts | 158° |
| 2026-04-30 19:19 | 53.03725 | -2.12616 | 11257 ft | 367 kts | 158° |
| 2026-04-30 19:19 | 53.01338 | -2.10950 | 11641 ft | 375 kts | 158° |
| 2026-04-30 19:19 | 52.96519 | -2.07612 | 12916 ft | 376 kts | 158° |
| 2026-04-30 19:20 | 52.94100 | -2.05945 | 13514 ft | 378 kts | 158° |
| 2026-04-30 19:20 | 52.91655 | -2.04265 | 14073 ft | 381 kts | 158° |
| 2026-04-30 19:20 | 52.86707 | -2.00873 | 15086 ft | 388 kts | 158° |
| 2026-04-30 19:21 | 52.84233 | -1.99181 | 15581 ft | 392 kts | 158° |
| 2026-04-30 19:21 | 52.79159 | -1.95717 | 16598 ft | 398 kts | 158° |
| 2026-04-30 19:22 | 52.73988 | -1.92195 | 17578 ft | 405 kts | 158° |
| 2026-04-30 19:22 | 52.66634 | -1.85320 | 18999 ft | 414 kts | 139° |
| 2026-04-30 19:23 | 52.60200 | -1.75696 | 20357 ft | 419 kts | 139° |
| 2026-04-30 19:24 | 52.55818 | -1.69265 | 21250 ft | 423 kts | 140° |
| 2026-04-30 19:24 | 52.53642 | -1.66087 | 21649 ft | 425 kts | 140° |
| 2026-04-30 19:24 | 52.49199 | -1.59613 | 22497 ft | 428 kts | 140° |
| 2026-04-30 19:25 | 52.42476 | -1.49851 | 23641 ft | 434 kts | 140° |
| 2026-04-30 19:26 | 52.37913 | -1.43246 | 24177 ft | 440 kts | 140° |
| 2026-04-30 19:26 | 52.33303 | -1.36593 | 24818 ft | 443 kts | 140° |
| 2026-04-30 19:26 | 52.30989 | -1.33260 | 25108 ft | 444 kts | 140° |
| 2026-04-30 19:27 | 52.26359 | -1.26607 | 25680 ft | 447 kts | 140° |
| 2026-04-30 19:27 | 52.21696 | -1.19924 | 26520 ft | 443 kts | 140° |
| 2026-04-30 19:28 | 52.19389 | -1.16625 | 26937 ft | 442 kts | 140° |
| 2026-04-30 19:28 | 52.14760 | -1.10021 | 27690 ft | 441 kts | 140° |
| 2026-04-30 19:29 | 52.10156 | -1.03471 | 28531 ft | 438 kts | 140° |
| 2026-04-30 19:29 | 52.07868 | -1.00224 | 28954 ft | 437 kts | 140° |
| 2026-04-30 19:30 | 52.00952 | -0.90436 | 29198 ft | 441 kts | 140° |
| 2026-04-30 19:31 | 51.91769 | -0.77500 | 29213 ft | 436 kts | 140° |
| 2026-04-30 19:31 | 51.84891 | -0.67862 | 29210 ft | 436 kts | 140° |
| 2026-04-30 19:32 | 51.80289 | -0.61434 | 29215 ft | 436 kts | 140° |
| 2026-04-30 19:32 | 51.75697 | -0.55038 | 29211 ft | 437 kts | 140° |
| 2026-04-30 19:33 | 51.71883 | -0.49741 | 29253 ft | 437 kts | 140° |
| 2026-04-30 19:33 | 51.67290 | -0.43375 | 29263 ft | 437 kts | 140° |
| 2026-04-30 19:34 | 51.62672 | -0.36994 | 29186 ft | 437 kts | 140° |
| 2026-04-30 19:35 | 51.55791 | -0.27392 | 29177 ft | 438 kts | 135° |
| 2026-04-30 19:35 | 51.53952 | -0.23473 | 29193 ft | 441 kts | 122° |
| 2026-04-30 19:35 | 51.52634 | -0.19012 | 29195 ft | 444 kts | 113° |
| 2026-04-30 19:36 | 51.51238 | -0.09297 | 29193 ft | 449 kts | 103° |
| 2026-04-30 19:36 | 51.49582 | 0.05322 | 29207 ft | 449 kts | 103° |
| 2026-04-30 19:37 | 51.48421 | 0.15153 | 29210 ft | 448 kts | 104° |
| 2026-04-30 19:37 | 51.47283 | 0.24601 | 29208 ft | 448 kts | 104° |
| 2026-04-30 19:38 | 51.46091 | 0.34405 | 29209 ft | 448 kts | 104° |
| 2026-04-30 19:38 | 51.44883 | 0.44273 | 29210 ft | 448 kts | 104° |
| 2026-04-30 19:39 | 51.43678 | 0.54058 | 29204 ft | 447 kts | 104° |
| 2026-04-30 19:39 | 51.42470 | 0.63785 | 29212 ft | 447 kts | 104° |
| 2026-04-30 19:40 | 51.41248 | 0.73558 | 29211 ft | 447 kts | 104° |
| 2026-04-30 19:40 | 51.40017 | 0.83328 | 29211 ft | 448 kts | 104° |
| 2026-04-30 19:41 | 51.38779 | 0.93089 | 29210 ft | 448 kts | 104° |
| 2026-04-30 19:41 | 51.37530 | 1.02876 | 29203 ft | 448 kts | 104° |
| 2026-04-30 19:42 | 51.36282 | 1.12574 | 29214 ft | 448 kts | 104° |
| 2026-04-30 19:42 | 51.35010 | 1.22394 | 29215 ft | 448 kts | 104° |
| 2026-04-30 19:43 | 51.33735 | 1.32171 | 29218 ft | 449 kts | 104° |
| 2026-04-30 19:44 | 51.31806 | 1.46836 | 29193 ft | 449 kts | 104° |
| 2026-04-30 19:44 | 51.30518 | 1.56536 | 29210 ft | 449 kts | 104° |
| 2026-04-30 19:45 | 51.29217 | 1.66280 | 29209 ft | 448 kts | 104° |
| 2026-04-30 19:45 | 51.27908 | 1.76020 | 29212 ft | 448 kts | 104° |
| 2026-04-30 19:46 | 51.26591 | 1.85751 | 29212 ft | 448 kts | 104° |
| 2026-04-30 19:46 | 51.25269 | 1.95464 | 29208 ft | 448 kts | 104° |
| 2026-04-30 19:47 | 51.24273 | 2.05253 | 29221 ft | 449 kts | 96° |
| 2026-04-30 19:47 | 51.23881 | 2.15235 | 29214 ft | 450 kts | 96° |
| 2026-04-30 19:48 | 51.23445 | 2.25201 | 29221 ft | 450 kts | 97° |
| 2026-04-30 19:48 | 51.22862 | 2.35130 | 29212 ft | 448 kts | 103° |
| 2026-04-30 19:48 | 51.21963 | 2.39862 | 29224 ft | 445 kts | 114° |
| 2026-04-30 19:49 | 51.20590 | 2.44270 | 29218 ft | 444 kts | 122° |
| 2026-04-30 19:49 | 51.16711 | 2.51953 | 28879 ft | 447 kts | 132° |
| 2026-04-30 19:49 | 51.14649 | 2.55638 | 28610 ft | 446 kts | 131° |
| 2026-04-30 19:50 | 51.12607 | 2.59362 | 28345 ft | 446 kts | 131° |
| 2026-04-30 19:50 | 51.10647 | 2.63112 | 28066 ft | 447 kts | 125° |
| 2026-04-30 19:50 | 51.09193 | 2.67554 | 27794 ft | 450 kts | 110° |
| 2026-04-30 19:50 | 51.08465 | 2.72335 | 27566 ft | 452 kts | 102° |
| 2026-04-30 19:51 | 51.07901 | 2.77257 | 27303 ft | 453 kts | 102° |
| 2026-04-30 19:51 | 51.07350 | 2.82181 | 27066 ft | 453 kts | 102° |
| 2026-04-30 19:51 | 51.06791 | 2.87120 | 26807 ft | 454 kts | 102° |
| 2026-04-30 19:51 | 51.06217 | 2.92057 | 26551 ft | 454 kts | 102° |
| 2026-04-30 19:52 | 51.05629 | 2.97005 | 26298 ft | 455 kts | 102° |
| 2026-04-30 19:52 | 51.05031 | 3.01949 | 26051 ft | 456 kts | 102° |
| 2026-04-30 19:52 | 51.04429 | 3.06878 | 25439 ft | 454 kts | 102° |
| 2026-04-30 19:52 | 51.03827 | 3.11767 | 24803 ft | 448 kts | 102° |
| 2026-04-30 19:53 | 51.03231 | 3.16590 | 24166 ft | 443 kts | 102° |
| 2026-04-30 19:53 | 51.02637 | 3.21381 | 23442 ft | 439 kts | 102° |
| 2026-04-30 19:53 | 51.02047 | 3.26119 | 22732 ft | 434 kts | 102° |
| 2026-04-30 19:53 | 51.01465 | 3.30787 | 22071 ft | 429 kts | 102° |
| 2026-04-30 19:54 | 51.00887 | 3.35407 | 21438 ft | 424 kts | 102° |
| 2026-04-30 19:54 | 51.00313 | 3.39977 | 20809 ft | 419 kts | 102° |
| 2026-04-30 19:54 | 50.99744 | 3.44485 | 20189 ft | 415 kts | 102° |
| 2026-04-30 19:54 | 50.99178 | 3.48964 | 19577 ft | 412 kts | 102° |
| 2026-04-30 19:55 | 50.98615 | 3.53402 | 18967 ft | 409 kts | 102° |
| 2026-04-30 19:55 | 50.98053 | 3.57819 | 18304 ft | 407 kts | 102° |
| 2026-04-30 19:55 | 50.97495 | 3.62194 | 17641 ft | 404 kts | 102° |
| 2026-04-30 19:55 | 50.96939 | 3.66536 | 17013 ft | 400 kts | 102° |
| 2026-04-30 19:56 | 50.96387 | 3.70830 | 16397 ft | 396 kts | 102° |
| 2026-04-30 19:56 | 50.95837 | 3.75102 | 15800 ft | 393 kts | 102° |
| 2026-04-30 19:56 | 50.95292 | 3.79324 | 15211 ft | 389 kts | 102° |
| 2026-04-30 19:56 | 50.94748 | 3.83520 | 14632 ft | 386 kts | 102° |
| 2026-04-30 19:57 | 50.94211 | 3.87663 | 13803 ft | 383 kts | 102° |
| 2026-04-30 19:57 | 50.93674 | 3.91781 | 12904 ft | 378 kts | 102° |
| 2026-04-30 19:57 | 50.93129 | 3.95816 | 12122 ft | 370 kts | 106° |
| 2026-04-30 19:57 | 50.92063 | 3.99462 | 11386 ft | 362 kts | 126° |
| 2026-04-30 19:58 | 50.90426 | 4.02352 | 10710 ft | 354 kts | 137° |
| 2026-04-30 19:58 | 50.88547 | 4.04826 | 10020 ft | 348 kts | 140° |
| 2026-04-30 19:58 | 50.86661 | 4.07184 | 9268 ft | 343 kts | 141° |
| 2026-04-30 19:58 | 50.84824 | 4.09470 | 8924 ft | 327 kts | 141° |
| 2026-04-30 19:59 | 50.83002 | 4.11502 | 8558 ft | 315 kts | 152° |
| 2026-04-30 19:59 | 50.80959 | 4.12591 | 8244 ft | 305 kts | 165° |
| 2026-04-30 19:59 | 50.76865 | 4.13321 | 7604 ft | 288 kts | 173° |
| 2026-04-30 20:00 | 50.74897 | 4.13547 | 7283 ft | 280 kts | 173° |
| 2026-04-30 20:00 | 50.72990 | 4.13767 | 6965 ft | 273 kts | 173° |
| 2026-04-30 20:00 | 50.71122 | 4.13988 | 6663 ft | 266 kts | 173° |
| 2026-04-30 20:00 | 50.69292 | 4.14210 | 6414 ft | 262 kts | 173° |
| 2026-04-30 20:01 | 50.65692 | 4.14658 | 5920 ft | 257 kts | 173° |
| 2026-04-30 20:01 | 50.63921 | 4.14879 | 5667 ft | 254 kts | 173° |
| 2026-04-30 20:01 | 50.62160 | 4.15101 | 5418 ft | 252 kts | 173° |
| 2026-04-30 20:02 | 50.58689 | 4.15539 | 4919 ft | 248 kts | 173° |
| 2026-04-30 20:02 | 50.56972 | 4.15755 | 4674 ft | 247 kts | 172° |
| 2026-04-30 20:03 | 50.53572 | 4.16183 | 4168 ft | 244 kts | 172° |
| 2026-04-30 20:03 | 50.51893 | 4.16395 | 3914 ft | 239 kts | 171° |
| 2026-04-30 20:03 | 50.50280 | 4.16597 | 3679 ft | 229 kts | 171° |
| 2026-04-30 20:03 | 50.48743 | 4.16785 | 3447 ft | 215 kts | 170° |
| 2026-04-30 20:04 | 50.47310 | 4.16960 | 3419 ft | 194 kts | 170° |
| 2026-04-30 20:04 | 50.46014 | 4.17121 | 3416 ft | 187 kts | 169° |
| 2026-04-30 20:04 | 50.44733 | 4.17346 | 3394 ft | 183 kts | 160° |
| 2026-04-30 20:05 | 50.42462 | 4.18939 | 3406 ft | 174 kts | 152° |
| 2026-04-30 20:05 | 50.41390 | 4.19702 | 3374 ft | 164 kts | 151° |
| 2026-04-30 20:05 | 50.39808 | 4.21940 | 3366 ft | 160 kts | 109° |
| 2026-04-30 20:06 | 50.39921 | 4.23693 | 3337 ft | 173 kts | 73° |
| 2026-04-30 20:06 | 50.40355 | 4.25450 | 3179 ft | 168 kts | 82° |
| 2026-04-30 20:06 | 50.40740 | 4.27118 | 2959 ft | 158 kts | 75° |
| 2026-04-30 20:06 | 50.41178 | 4.28663 | 2773 ft | 154 kts | 73° |
| 2026-04-30 20:07 | 50.41613 | 4.30175 | 2564 ft | 149 kts | 73° |
| 2026-04-30 20:07 | 50.42037 | 4.31647 | 2372 ft | 149 kts | 73° |
| 2026-04-30 20:07 | 50.42855 | 4.34461 | 2043 ft | 136 kts | 74° |
| 2026-04-30 20:08 | 50.43250 | 4.35817 | 1864 ft | 137 kts | 73° |
| 2026-04-30 20:08 | 50.43647 | 4.37222 | 1665 ft | 145 kts | 75° |
| 2026-04-30 20:08 | 50.44044 | 4.38722 | 1394 ft | 153 kts | 71° |
| 2026-04-30 20:08 | 50.44503 | 4.40229 | 1210 ft | 151 kts | 68° |
| 2026-04-30 20:09 | 50.44952 | 4.41721 | 996 ft | 151 kts | 67° |
| 2026-04-30 20:09 | 50.45388 | 4.43225 | 776 ft | 152 kts | 68° |
| 2026-04-30 20:09 | 50.46210 | 4.46062 | 591 ft | 109 kts | 66° |
| 2026-04-30 20:10 | 50.46524 | 4.47143 | 597 ft | 32 kts | 66° |
| 2026-04-30 20:10 | 50.46622 | 4.47427 | 595 ft | 19 kts | 33° |
| 2026-04-30 20:10 | 50.46744 | 4.47395 | 589 ft | 8 kts | 333° |
| 2026-04-30 20:11 | 50.46746 | 4.47393 | 589 ft | 0 kts | 333° |
| 2026-04-30 20:11 | 50.46755 | 4.47386 | 589 ft | 5 kts | 333° |
| 2026-04-30 20:11 | 50.46816 | 4.47342 | 587 ft | 13 kts | 336° |
| 2026-04-30 20:12 | 50.46812 | 4.47110 | 585 ft | 2 kts | 247° |
| 2026-04-30 20:12 | 50.46809 | 4.47089 | 584 ft | 2 kts | 271° |
| 2026-04-30 20:12 | 50.46834 | 4.47057 | 584 ft | 6 kts | 332° |
| 2026-04-30 20:13 | 50.46854 | 4.47043 | 584 ft | 1 kts | 335° |
| 2026-04-30 20:13 | 50.46854 | 4.47042 | 584 ft | 0 kts | 335° |